createdAt,value
2018-09-11T00:01:57.723Z,16.31
2018-09-11T00:04:28.070Z,16.28
2018-09-11T00:06:58.644Z,16.24
2018-09-11T00:09:29.091Z,16.19
2018-09-11T00:12:00.567Z,16.21
2018-09-11T00:14:32.126Z,16.13
2018-09-11T00:17:03.045Z,16.19
2018-09-11T00:19:34.139Z,16.21
2018-09-11T00:22:04.610Z,16.28
2018-09-11T00:24:35.371Z,16.25
2018-09-11T00:27:07.919Z,16.22
2018-09-11T00:29:39.742Z,16.19
2018-09-11T00:32:11.630Z,16.27
2018-09-11T00:34:42.753Z,16.30
2018-09-11T00:37:13.044Z,16.29
2018-09-11T00:39:44.411Z,16.33
2018-09-11T00:42:16.771Z,16.33
2018-09-11T00:44:53.739Z,16.25
2018-09-11T00:47:27.378Z,16.19
2018-09-11T00:50:00.075Z,16.19
2018-09-11T00:52:31.221Z,16.19
2018-09-11T00:55:03.241Z,16.35
2018-09-11T00:57:34.659Z,16.47
2018-09-11T01:00:06.807Z,16.36
2018-09-11T01:02:37.904Z,16.35
2018-09-11T01:05:08.026Z,16.31
2018-09-11T01:07:39.986Z,16.28
2018-09-11T01:10:12.052Z,16.26
2018-09-11T01:12:43.052Z,16.22
2018-09-11T01:15:14.316Z,16.18
2018-09-11T01:17:44.514Z,16.17
2018-09-11T01:20:16.500Z,16.13
2018-09-11T01:22:46.524Z,16.10
2018-09-11T01:25:17.224Z,16.10
2018-09-11T01:27:47.770Z,16.20
2018-09-11T01:30:21.518Z,16.18
2018-09-11T01:32:52.902Z,16.14
2018-09-11T01:35:24.992Z,16.15
2018-09-11T01:37:56.276Z,16.07
2018-09-11T01:40:27.462Z,16.13
2018-09-11T01:42:59.706Z,16.10
2018-09-11T01:45:31.886Z,16.05
2018-09-11T01:48:03.077Z,16.06
2018-09-11T01:50:35.389Z,15.86
2018-09-11T01:53:06.404Z,15.99
2018-09-11T01:55:37.259Z,16.08
2018-09-11T01:58:08.549Z,16.08
2018-09-11T02:00:41.546Z,16.07
2018-09-11T02:03:13.336Z,16.03
2018-09-11T02:05:43.904Z,15.90
2018-09-11T02:08:14.617Z,15.70
2018-09-11T02:10:45.078Z,15.79
2018-09-11T02:13:16.495Z,15.79
2018-09-11T02:15:47.112Z,15.65
2018-09-11T02:18:17.272Z,15.53
2018-09-11T02:20:49.650Z,15.47
2018-09-11T02:23:19.770Z,15.39
2018-09-11T02:25:49.943Z,15.39
2018-09-11T02:28:21.722Z,15.38
2018-09-11T02:30:52.947Z,15.40
2018-09-11T02:33:25.727Z,15.35
2018-09-11T02:35:56.276Z,15.34
2018-09-11T02:38:29.593Z,15.18
2018-09-11T02:40:59.627Z,15.26
2018-09-11T02:43:30.463Z,15.38
2018-09-11T02:46:00.515Z,15.36
2018-09-11T02:48:32.302Z,15.38
2018-09-11T02:51:04.412Z,15.37
2018-09-11T02:53:35.630Z,15.22
2018-09-11T02:56:06.678Z,15.18
2018-09-11T02:58:39.502Z,15.20
2018-09-11T03:01:11.392Z,15.12
2018-09-11T03:03:44.264Z,15.07
2018-09-11T03:06:17.320Z,15.07
2018-09-11T03:08:51.958Z,15.05
2018-09-11T03:11:23.305Z,15.05
2018-09-11T03:13:54.459Z,14.91
2018-09-11T03:16:26.954Z,14.86
2018-09-11T03:18:57.766Z,14.67
2018-09-11T03:21:32.460Z,14.54
2018-09-11T03:24:02.541Z,14.64
2018-09-11T03:26:32.789Z,14.60
2018-09-11T03:29:02.941Z,14.51
2018-09-11T03:31:33.578Z,14.57
2018-09-11T03:34:03.779Z,14.52
2018-09-11T03:36:34.046Z,14.49
2018-09-11T03:39:07.025Z,14.39
2018-09-11T03:41:39.415Z,14.49
2018-09-11T03:44:09.503Z,14.49
2018-09-11T03:46:40.116Z,14.46
2018-09-11T03:49:10.640Z,14.39
2018-09-11T03:51:40.734Z,14.24
2018-09-11T03:54:12.969Z,14.19
2018-09-11T03:56:47.649Z,14.16
2018-09-11T03:59:21.643Z,14.28
2018-09-11T04:01:54.579Z,14.30
2018-09-11T04:04:28.043Z,14.17
2018-09-11T04:07:00.727Z,13.98
2018-09-11T04:09:33.743Z,14.00
2018-09-11T04:12:05.787Z,14.01
2018-09-11T04:14:36.035Z,13.92
2018-09-11T04:17:06.589Z,13.96
2018-09-11T04:19:37.719Z,13.93
2018-09-11T04:22:25.563Z,13.82
2018-09-11T04:25:08.523Z,13.83
2018-09-11T04:27:38.975Z,13.91
2018-09-11T04:30:10.196Z,13.91
2018-09-11T04:32:40.409Z,13.93
2018-09-11T04:35:10.586Z,13.95
2018-09-11T04:37:40.751Z,13.95
2018-09-11T04:40:13.493Z,13.84
2018-09-11T04:42:44.705Z,13.84
2018-09-11T04:48:07.219Z,13.82
2018-09-11T04:50:38.761Z,13.80
2018-09-11T04:53:09.970Z,13.75
2018-09-11T04:55:40.502Z,13.75
2018-09-11T04:58:11.203Z,13.82
2018-09-11T05:00:41.549Z,13.83
2018-09-11T05:03:12.695Z,13.89
2018-09-11T05:05:43.884Z,13.90
2018-09-11T05:08:14.153Z,13.94
2018-09-11T05:10:45.914Z,13.99
2018-09-11T05:13:17.030Z,14.00
2018-09-11T05:15:49.329Z,14.07
2018-09-11T05:18:19.555Z,14.20
2018-09-11T05:20:51.976Z,14.21
2018-09-11T05:23:22.146Z,14.21
2018-09-11T05:25:53.560Z,14.33
2018-09-11T05:28:24.118Z,14.35
2018-09-11T05:30:55.073Z,14.32
2018-09-11T05:33:27.963Z,14.41
2018-09-11T05:36:04.627Z,14.53
2018-09-11T05:38:38.402Z,14.71
2018-09-11T05:41:13.455Z,14.85
2018-09-11T05:43:48.062Z,14.97
2018-09-11T05:46:20.732Z,14.99
2018-09-11T05:48:55.586Z,15.05
2018-09-11T05:51:27.438Z,15.12
2018-09-11T05:53:58.670Z,15.27
2018-09-11T05:56:29.506Z,15.54
2018-09-11T05:58:59.996Z,15.76
2018-09-11T06:01:30.796Z,16.03
2018-09-11T06:04:01.278Z,16.28
2018-09-11T06:06:31.552Z,16.50
2018-09-11T06:09:01.944Z,16.63
2018-09-11T06:11:32.324Z,16.97
2018-09-11T06:14:04.444Z,17.15
2018-09-11T06:16:36.272Z,17.36
2018-09-11T06:19:07.205Z,17.59
2018-09-11T06:21:38.366Z,17.88
2018-09-11T06:24:09.726Z,18.16
2018-09-11T06:26:40.071Z,18.31
2018-09-11T06:29:11.541Z,18.56
2018-09-11T06:31:41.934Z,18.77
2018-09-11T06:34:12.956Z,19.00
2018-09-11T06:36:56.096Z,19.30
2018-09-11T06:39:31.209Z,19.53
2018-09-11T06:42:01.542Z,19.63
2018-09-11T06:44:33.102Z,19.84
2018-09-11T06:47:04.976Z,20.12
2018-09-11T06:49:37.005Z,20.29
2018-09-11T06:52:07.117Z,20.34
2018-09-11T06:54:39.354Z,20.65
2018-09-11T06:57:09.443Z,20.85
2018-09-11T06:59:40.492Z,21.31
2018-09-11T07:02:10.842Z,21.80
2018-09-11T07:04:40.927Z,21.81
2018-09-11T07:07:11.249Z,21.74
2018-09-11T07:09:42.411Z,21.91
2018-09-11T07:12:13.605Z,22.24
2018-09-11T07:14:44.354Z,22.44
2018-09-11T07:17:14.859Z,22.93
2018-09-11T07:19:45.935Z,22.67
2018-09-11T07:22:17.031Z,22.81
2018-09-11T07:24:48.482Z,22.92
2018-09-11T07:27:18.971Z,23.04
2018-09-11T07:29:49.496Z,22.95
2018-09-11T07:32:21.777Z,22.53
2018-09-11T07:34:51.881Z,22.12
2018-09-11T07:37:24.047Z,22.09
2018-09-11T07:39:55.180Z,22.33
2018-09-11T07:42:27.067Z,23.12
2018-09-11T07:44:57.408Z,22.91
2018-09-11T07:47:28.627Z,23.10
2018-09-11T07:49:58.910Z,23.71
2018-09-11T07:52:29.542Z,23.71
2018-09-11T07:54:59.849Z,24.00
2018-09-11T07:57:30.832Z,24.02
2018-09-11T08:00:01.765Z,23.92
2018-09-11T08:02:33.082Z,23.76
2018-09-11T08:05:04.534Z,24.17
2018-09-11T08:07:35.451Z,24.52
2018-09-11T08:10:05.753Z,24.51
2018-09-11T08:12:37.173Z,24.78
2018-09-11T08:15:09.882Z,24.96
2018-09-11T08:17:44.219Z,24.28
2018-09-11T08:20:14.663Z,24.17
2018-09-11T08:22:46.273Z,24.45
2018-09-11T08:25:17.413Z,24.95
2018-09-11T08:27:48.953Z,24.54
2018-09-11T08:30:21.745Z,25.56
2018-09-11T08:32:53.032Z,26.19
2018-09-11T08:35:25.252Z,26.21
2018-09-11T08:37:57.616Z,26.34
2018-09-11T08:40:29.473Z,26.16
2018-09-11T08:43:01.188Z,26.71
2018-09-11T08:45:31.501Z,26.55
2018-09-11T08:48:01.833Z,26.31
2018-09-11T08:50:32.186Z,25.92
2018-09-11T08:53:03.891Z,26.21
2018-09-11T08:55:35.062Z,26.19
2018-09-11T08:58:05.758Z,26.63
2018-09-11T09:00:36.429Z,26.94
2018-09-11T09:03:07.876Z,27.01
2018-09-11T09:05:39.290Z,26.44
2018-09-11T09:08:09.439Z,26.16
2018-09-11T09:10:39.474Z,26.49
2018-09-11T09:13:10.033Z,26.92
2018-09-11T09:15:40.226Z,27.27
2018-09-11T09:18:11.780Z,27.58
2018-09-11T09:20:42.937Z,28.24
2018-09-11T09:23:13.552Z,28.74
2018-09-11T09:25:45.281Z,28.63
2018-09-11T09:28:17.225Z,28.12
2018-09-11T09:30:47.301Z,28.12
2018-09-11T09:33:18.351Z,29.39
2018-09-11T09:36:00.638Z,31.13
2018-09-11T09:38:33.147Z,32.16
2018-09-11T09:41:04.083Z,32.26
2018-09-11T09:43:35.754Z,31.68
2018-09-11T09:46:15.168Z,32.27
2018-09-11T09:48:46.676Z,31.86
2018-09-11T09:51:17.673Z,32.52
2018-09-11T09:53:49.423Z,32.37
2018-09-11T09:56:21.656Z,31.99
2018-09-11T09:58:52.624Z,32.06
2018-09-11T10:01:28.142Z,31.33
2018-09-11T10:04:00.329Z,31.16
2018-09-11T10:06:30.626Z,32.54
2018-09-11T10:09:01.359Z,32.38
2018-09-11T10:11:31.826Z,32.12
2018-09-11T10:14:02.148Z,32.16
2018-09-11T10:16:38.740Z,31.14
2018-09-11T10:19:10.014Z,31.75
2018-09-11T10:21:40.387Z,32.49
2018-09-11T10:24:11.233Z,32.48
2018-09-11T10:26:41.694Z,33.07
2018-09-11T10:29:12.740Z,32.83
2018-09-11T10:31:43.817Z,32.79
2018-09-11T10:34:17.096Z,33.32
2018-09-11T10:36:57.962Z,32.47
2018-09-11T10:39:28.714Z,33.49
2018-09-11T10:41:59.106Z,31.47
2018-09-11T10:44:30.338Z,30.04
2018-09-11T10:47:00.418Z,30.22
2018-09-11T10:49:31.591Z,32.22
2018-09-11T10:52:02.073Z,33.62
2018-09-11T10:54:32.157Z,33.81
2018-09-11T10:57:03.546Z,32.99
2018-09-11T10:59:33.577Z,33.66
2018-09-11T11:02:03.599Z,32.04
2018-09-11T11:04:33.727Z,29.92
2018-09-11T11:07:13.320Z,30.98
2018-09-11T11:09:43.578Z,31.44
2018-09-11T11:12:13.960Z,32.89
2018-09-11T11:14:45.022Z,31.39
2018-09-11T11:17:16.228Z,32.80
2018-09-11T11:19:48.130Z,31.37
2018-09-11T11:22:18.706Z,29.79
2018-09-11T11:24:49.252Z,29.08
2018-09-11T11:27:19.658Z,30.87
2018-09-11T11:29:50.658Z,31.52
2018-09-11T11:32:21.298Z,31.39
2018-09-11T11:34:52.004Z,31.30
2018-09-11T11:37:23.746Z,31.00
2018-09-11T11:39:56.007Z,33.19
2018-09-11T11:42:43.275Z,35.70
2018-09-11T11:45:14.370Z,37.06
2018-09-11T11:47:45.353Z,37.15
2018-09-11T11:50:16.802Z,37.39
2018-09-11T11:52:47.513Z,38.23
2018-09-11T11:55:19.352Z,38.32
2018-09-11T11:57:49.743Z,39.37
2018-09-11T12:00:20.496Z,40.31
2018-09-11T12:02:54.695Z,40.33
2018-09-11T12:05:24.970Z,41.14
2018-09-11T12:07:55.219Z,39.06
2018-09-11T12:10:26.324Z,38.65
2018-09-11T12:12:57.515Z,38.00
2018-09-11T12:15:27.603Z,38.33
2018-09-11T12:17:58.493Z,37.48
2018-09-11T12:20:30.595Z,37.49
2018-09-11T12:23:01.279Z,37.94
2018-09-11T12:25:32.446Z,38.43
2018-09-11T12:28:02.868Z,38.92
2018-09-11T12:30:34.076Z,37.43
2018-09-11T12:33:05.164Z,36.87
2018-09-11T12:35:36.762Z,36.89
2018-09-11T12:38:07.162Z,37.29
2018-09-11T12:40:38.981Z,37.63
2018-09-11T12:43:10.019Z,37.75
2018-09-11T12:45:42.303Z,37.21
2018-09-11T12:48:13.056Z,36.62
2018-09-11T12:50:43.869Z,36.97
2018-09-11T12:53:14.276Z,35.92
2018-09-11T12:55:47.942Z,35.78
2018-09-11T12:58:19.118Z,35.91
2018-09-11T13:00:49.547Z,36.04
2018-09-11T13:03:22.423Z,35.47
2018-09-11T13:05:53.029Z,35.35
2018-09-11T13:08:23.629Z,34.86
2018-09-11T13:10:53.813Z,35.00
2018-09-11T13:13:24.224Z,34.46
2018-09-11T13:15:54.908Z,33.73
2018-09-11T13:18:25.265Z,33.69
2018-09-11T13:20:56.461Z,34.50
2018-09-11T13:23:27.705Z,34.78
2018-09-11T13:25:57.937Z,33.63
2018-09-11T13:28:29.453Z,33.73
2018-09-11T13:30:59.507Z,34.02
2018-09-11T13:33:30.671Z,34.21
2018-09-11T13:36:00.863Z,34.75
2018-09-11T13:38:32.609Z,34.29
2018-09-11T13:41:03.217Z,34.27
2018-09-11T13:43:33.989Z,35.18
2018-09-11T13:46:05.917Z,34.49
2018-09-11T13:48:36.087Z,34.85
2018-09-11T13:51:06.535Z,34.39
2018-09-11T13:53:38.025Z,34.52
2018-09-11T13:56:09.391Z,34.89
2018-09-11T13:58:39.729Z,34.06
2018-09-11T14:01:11.532Z,33.95
2018-09-11T14:03:42.089Z,33.57
2018-09-11T14:06:13.027Z,34.80
2018-09-11T14:08:45.155Z,35.09
2018-09-11T14:11:16.155Z,36.77
2018-09-11T14:13:47.689Z,37.13
2018-09-11T14:16:18.658Z,36.45
2018-09-11T14:18:51.153Z,35.77
2018-09-11T14:21:21.940Z,35.90
2018-09-11T14:23:53.293Z,35.19
2018-09-11T14:26:23.695Z,36.13
2018-09-11T14:28:54.140Z,35.97
2018-09-11T14:31:27.391Z,35.88
2018-09-11T14:33:59.055Z,35.62
2018-09-11T14:36:29.934Z,35.91
2018-09-11T14:39:01.707Z,35.53
2018-09-11T14:41:34.250Z,34.87
2018-09-11T14:44:05.492Z,34.99
2018-09-11T14:46:36.187Z,35.05
2018-09-11T14:49:07.124Z,34.97
2018-09-11T14:51:37.859Z,34.00
2018-09-11T14:54:08.516Z,33.39
2018-09-11T14:56:42.270Z,33.54
2018-09-11T14:59:12.792Z,33.01
2018-09-11T15:01:44.299Z,33.06
2018-09-11T15:04:14.473Z,32.84
2018-09-11T15:06:44.558Z,32.64
2018-09-11T15:09:15.666Z,33.52
2018-09-11T15:11:45.798Z,33.69
2018-09-11T15:14:16.134Z,33.04
2018-09-11T15:16:48.336Z,32.70
2018-09-11T15:19:18.890Z,32.79
2018-09-11T15:21:48.988Z,33.01
2018-09-11T15:24:21.469Z,32.94
2018-09-11T15:26:51.968Z,32.76
2018-09-11T15:29:22.280Z,32.71
2018-09-11T15:31:52.774Z,32.04
2018-09-11T15:34:23.060Z,31.74
2018-09-11T15:36:53.933Z,32.26
2018-09-11T15:39:24.548Z,32.78
2018-09-11T15:41:55.066Z,33.10
2018-09-11T15:44:27.121Z,33.35
2018-09-11T15:46:58.156Z,32.35
2018-09-11T15:49:29.048Z,31.66
2018-09-11T15:52:02.008Z,31.62
2018-09-11T15:54:32.277Z,31.75
2018-09-11T15:57:02.696Z,32.09
2018-09-11T15:59:33.281Z,31.70
2018-09-11T16:02:04.546Z,31.71
2018-09-11T16:04:35.253Z,31.75
2018-09-11T16:07:06.553Z,32.06
2018-09-11T16:09:37.026Z,31.51
2018-09-11T16:12:07.721Z,31.03
2018-09-11T16:14:38.784Z,30.82
2018-09-11T16:17:08.946Z,30.29
2018-09-11T16:19:40.618Z,30.48
2018-09-11T16:22:10.790Z,30.56
2018-09-11T16:24:42.776Z,30.02
2018-09-11T16:27:14.415Z,29.81
2018-09-11T16:29:56.731Z,30.02
2018-09-11T16:32:40.456Z,30.39
2018-09-11T16:35:23.112Z,30.35
2018-09-11T16:37:53.626Z,30.08
2018-09-11T16:40:24.784Z,29.82
2018-09-11T16:42:56.755Z,29.44
2018-09-11T16:45:31.771Z,29.60
2018-09-11T16:48:06.320Z,29.39
2018-09-11T16:50:36.599Z,29.35
2018-09-11T16:53:06.909Z,29.21
2018-09-11T16:55:37.889Z,29.12
2018-09-11T16:58:09.198Z,29.07
2018-09-11T17:00:44.053Z,28.67
2018-09-11T17:03:14.932Z,28.41
2018-09-11T17:05:46.377Z,28.15
2018-09-11T17:08:16.947Z,28.07
2018-09-11T17:10:47.959Z,27.67
2018-09-11T17:13:20.273Z,27.60
2018-09-11T17:15:51.919Z,27.53
2018-09-11T17:18:23.695Z,27.33
2018-09-11T17:20:55.233Z,26.95
2018-09-11T17:23:30.798Z,26.66
2018-09-11T17:26:02.731Z,26.55
2018-09-11T17:28:34.447Z,26.22
2018-09-11T17:31:12.700Z,25.94
2018-09-11T17:33:43.040Z,25.79
2018-09-11T17:36:13.201Z,25.70
2018-09-11T17:38:43.391Z,25.54
2018-09-11T17:41:13.542Z,25.29
2018-09-11T17:43:44.849Z,25.09
2018-09-11T17:46:15.751Z,24.92
2018-09-11T17:48:46.553Z,24.85
2018-09-11T17:58:06.665Z,24.20
2018-09-11T18:00:36.871Z,24.04
2018-09-11T18:03:08.178Z,24.04
2018-09-11T18:05:39.968Z,23.78
2018-09-11T18:08:10.802Z,23.54
2018-09-11T18:10:42.353Z,23.46
2018-09-11T18:13:14.064Z,23.23
2018-09-11T18:15:44.917Z,23.10
2018-09-11T18:18:20.389Z,22.96
2018-09-11T18:20:50.883Z,22.87
2018-09-11T18:23:21.295Z,22.79
2018-09-11T18:25:51.593Z,22.76
2018-09-11T18:28:21.843Z,22.71
2018-09-11T18:30:55.444Z,22.63
2018-09-11T18:33:26.124Z,22.52
2018-09-11T18:35:56.477Z,22.44
2018-09-11T18:38:27.715Z,22.25
2018-09-11T18:40:57.842Z,22.19
2018-09-11T18:43:28.955Z,22.26
2018-09-11T18:45:59.504Z,22.24
2018-09-11T18:48:30.549Z,21.94
2018-09-11T18:51:04.643Z,22.00
2018-09-11T18:53:36.759Z,22.00
2018-09-11T18:56:06.927Z,21.98
2018-09-11T18:58:37.600Z,21.93
2018-09-11T19:01:07.739Z,21.77
2018-09-11T19:03:37.901Z,21.71
2018-09-11T19:06:08.154Z,21.68
2018-09-11T19:08:39.163Z,21.63
2018-09-11T19:11:09.341Z,21.54
2018-09-11T19:13:39.316Z,21.51
2018-09-11T19:16:09.521Z,21.34
2018-09-11T19:18:39.909Z,21.25
2018-09-11T19:21:10.899Z,21.07
2018-09-11T19:23:42.013Z,20.89
2018-09-11T19:26:12.119Z,20.65
2018-09-11T19:28:42.283Z,20.48
2018-09-11T19:31:12.493Z,20.40
2018-09-11T19:33:43.980Z,20.34
2018-09-11T19:36:14.395Z,20.21
2018-09-11T19:38:45.160Z,20.16
2018-09-11T19:41:15.538Z,20.08
2018-09-11T19:43:45.483Z,20.01
2018-09-11T19:46:16.123Z,20.10
2018-09-11T19:48:47.263Z,20.14
2018-09-11T19:51:17.339Z,20.03
2018-09-11T19:53:47.593Z,19.99
2018-09-11T19:56:17.738Z,20.00
2018-09-11T19:58:51.038Z,19.98
2018-09-11T20:01:21.157Z,19.81
2018-09-11T20:03:53.888Z,19.61
2018-09-11T20:06:24.448Z,19.43
2018-09-11T20:08:54.586Z,19.50
2018-09-11T20:11:24.704Z,19.48
2018-09-11T20:13:54.794Z,19.44
2018-09-11T20:16:26.482Z,19.40
2018-09-11T20:18:56.677Z,19.36
2018-09-11T20:21:26.786Z,19.27
2018-09-11T20:23:56.910Z,19.27
2018-09-11T20:26:28.179Z,19.20
2018-09-11T20:28:58.299Z,19.13
2018-09-11T20:31:28.346Z,18.99
2018-09-11T20:33:59.490Z,18.93
2018-09-11T20:36:31.322Z,18.78
2018-09-11T20:39:02.955Z,18.75
2018-09-11T20:41:38.677Z,18.62
2018-09-11T20:44:10.756Z,18.62
2018-09-11T20:46:40.857Z,18.52
2018-09-11T20:49:11.814Z,18.50
2018-09-11T20:51:42.083Z,18.42
2018-09-11T20:54:13.821Z,18.44
2018-09-11T20:56:44.038Z,18.52
2018-09-11T20:59:15.112Z,18.45
2018-09-11T21:01:45.278Z,18.39
2018-09-11T21:04:16.488Z,18.38
2018-09-11T21:06:48.011Z,18.37
2018-09-11T21:09:18.544Z,18.27
2018-09-11T21:11:49.856Z,18.25
2018-09-11T21:14:20.094Z,18.07
2018-09-11T21:16:52.454Z,17.99
2018-09-11T21:19:27.435Z,17.96
2018-09-11T21:21:57.510Z,17.99
2018-09-11T21:24:28.286Z,17.97
2018-09-11T21:26:58.450Z,18.03
2018-09-11T21:29:30.542Z,17.88
2018-09-11T21:32:02.505Z,17.85
2018-09-11T21:34:33.024Z,17.73
2018-09-11T21:37:03.065Z,17.63
2018-09-11T21:39:35.101Z,17.56
2018-09-11T21:42:07.447Z,17.57
2018-09-11T21:44:38.547Z,17.47
2018-09-11T21:47:10.422Z,17.35
2018-09-11T21:49:40.468Z,17.27
2018-09-11T21:52:11.510Z,17.28
2018-09-11T21:54:41.961Z,17.22
2018-09-11T21:57:12.154Z,17.18
2018-09-11T21:59:42.857Z,17.14
2018-09-11T22:02:12.985Z,17.14
2018-09-11T22:04:44.317Z,17.08
2018-09-11T22:07:15.868Z,17.03
2018-09-11T22:09:46.079Z,17.04
2018-09-11T22:12:16.601Z,17.06
2018-09-11T22:14:47.503Z,16.99
2018-09-11T22:17:17.858Z,17.02
2018-09-11T22:19:49.124Z,17.01
2018-09-11T22:22:19.250Z,16.98
2018-09-11T22:24:49.907Z,16.97
2018-09-11T22:27:19.995Z,16.89
2018-09-11T22:29:51.532Z,16.83
2018-09-11T22:32:23.200Z,16.81
2018-09-11T22:34:53.243Z,16.79
2018-09-11T22:37:23.986Z,16.68
2018-09-11T22:39:54.258Z,16.71
2018-09-11T22:42:25.282Z,16.66
2018-09-11T22:44:55.945Z,16.60
2018-09-11T22:47:27.486Z,16.63
2018-09-11T22:49:57.942Z,16.60
2018-09-11T22:52:28.148Z,16.56
2018-09-11T22:54:58.357Z,16.53
2018-09-11T22:57:29.672Z,16.48
2018-09-11T23:00:00.904Z,16.47
2018-09-11T23:02:32.934Z,16.45
2018-09-11T23:05:03.216Z,16.35
2018-09-11T23:07:33.258Z,16.28
2018-09-11T23:10:05.236Z,16.25
2018-09-11T23:12:35.306Z,16.26
2018-09-11T23:15:05.541Z,16.22
2018-09-11T23:17:37.558Z,16.18
2018-09-11T23:20:08.216Z,16.14
2018-09-11T23:22:41.616Z,16.13
2018-09-11T23:25:11.910Z,16.05
2018-09-11T23:27:42.334Z,16.04
2018-09-11T23:30:14.284Z,16.05
2018-09-11T23:32:44.570Z,16.04
2018-09-11T23:35:16.717Z,15.98
2018-09-11T23:37:47.462Z,15.95
2018-09-11T23:40:17.926Z,15.94
2018-09-11T23:42:48.817Z,15.95
2018-09-11T23:45:18.854Z,15.88
2018-09-11T23:47:50.689Z,15.83
2018-09-11T23:50:21.081Z,15.81
2018-09-11T23:52:52.957Z,15.77
2018-09-11T23:55:23.999Z,15.74
2018-09-11T23:57:54.863Z,15.72
